Baker City Municipal Airport
KBKE : now visible

Airfield :











YOU CAN JOIN US ON...

 
LOGIN :

Register | Disclaimer

   EN    FR    IT 

 









Legend :    VFR   Marginal VFR   IFR   Intensive IFR   Very Intensive IFR
Visi :
Ceiling :
>= 8 km
>= 3000ft
5 to 8 km
1000 to 3000 ft
1500m to 5 km
500 to 1000 ft
800 to 1500m
200 to 500 ft
< 800m
< 200 ft
Symbols :   Thunderstorms  Fog  Heavy snow  Heavy precipitations  Wind > 20 kt






- Airport Elevation : 3373 ft


KBKE - Baker City Municipal

CURRENT METAR :
  • 291453Z AUTO 05004KT 10SM CLR M01/M03 A3028 RMK AO2 SLP275 T10111028 53001

EXPIRED METARs :
  • 291418Z AUTO 00000KT 10SM SCT028 M01/M03 A3028 RMK AO2 T10111033
  • 291353Z AUTO 00000KT 10SM BKN028 00/M02 A3028 RMK AO2 SLP272 T00001022
  • 291253Z AUTO 00000KT 10SM OVC028 M01/M02 A3028 RMK AO2 SLP272 T10061017

TAF KBKE
Valid from the 29 at 12:00 until the 30 at 12:00 UTC


291226Z 2912/3012 VRB03KT P6SM BKN025
FM292000 10005KT 1SM BR VCSH OVC025
FM292300 10006KT 6SM -RASN OVC015
FM300900 30003KT 1/2SM FZFG OVC010



MET'MAP, your aeronautical weather chart ! - Copyright ORBIFLY December 2007 - Disclaimer

ORBIFLY MET'MAP TEAM :

Programming & Development : Alexandra Zaïnal
Concept & original design : Baudouin d'Aumeries
Assistance for programming : Marc-Olivier Méhu
Technical & hardware support : Manuel Goepfert

Contact : metmap@orbifly.com




SOURCES & CREDITS :

   NOAA       Earth
Advisory